createdAt,value
2022-11-26T00:00:20.189Z,66
2022-11-26T00:05:17.145Z,66
2022-11-26T00:10:20.206Z,66
2022-11-26T00:15:20.219Z,67
2022-11-26T00:20:17.237Z,67
2022-11-26T00:25:20.190Z,67
2022-11-26T00:30:21.292Z,67
2022-11-26T00:35:17.268Z,67
2022-11-26T00:40:20.243Z,67
2022-11-26T00:45:20.202Z,67
2022-11-26T00:50:20.216Z,67
2022-11-26T00:55:17.315Z,68
2022-11-26T01:00:20.240Z,68
2022-11-26T01:05:21.258Z,68
2022-11-26T01:10:17.200Z,68
2022-11-26T01:15:20.216Z,69
2022-11-26T01:20:25.050Z,69
2022-11-26T01:25:20.313Z,69
2022-11-26T01:30:20.254Z,69
2022-11-26T01:35:17.281Z,69
2022-11-26T01:40:18.242Z,70
2022-11-26T01:45:17.233Z,70
2022-11-26T01:50:15.558Z,70
2022-11-26T01:55:20.290Z,71
2022-11-26T02:00:20.285Z,71
2022-11-26T02:05:20.220Z,71
2022-11-26T02:10:17.303Z,71
2022-11-26T02:15:18.266Z,71
2022-11-26T02:20:20.269Z,71
2022-11-26T02:25:20.226Z,71
2022-11-26T02:30:20.290Z,71
2022-11-26T02:35:20.265Z,71
2022-11-26T02:40:17.332Z,71
2022-11-26T02:45:17.333Z,72
2022-11-26T02:50:21.296Z,72
2022-11-26T02:55:20.398Z,72
2022-11-26T03:00:17.377Z,72
2022-11-26T03:05:20.258Z,72
2022-11-26T03:10:20.343Z,72
2022-11-26T03:15:20.266Z,72
2022-11-26T03:20:20.315Z,72
2022-11-26T03:25:18.468Z,72
2022-11-26T03:30:20.298Z,71
2022-11-26T03:35:20.333Z,71
2022-11-26T03:40:20.278Z,71
2022-11-26T03:45:20.274Z,71
2022-11-26T03:50:20.238Z,70
2022-11-26T03:55:21.370Z,70
2022-11-26T04:00:17.334Z,70
2022-11-26T04:05:20.306Z,69
2022-11-26T04:10:20.323Z,68
2022-11-26T04:15:17.362Z,68
2022-11-26T04:20:17.331Z,68
2022-11-26T04:25:20.321Z,67
2022-11-26T04:30:21.315Z,67
2022-11-26T04:35:17.380Z,66
2022-11-26T04:40:20.337Z,66
2022-11-26T04:45:17.363Z,66
2022-11-26T04:50:17.322Z,65
2022-11-26T04:55:20.363Z,65
2022-11-26T05:00:19.618Z,66
2022-11-26T05:05:17.672Z,65
2022-11-26T05:10:19.581Z,65
2022-11-26T05:15:19.625Z,65
2022-11-26T05:20:16.578Z,65
2022-11-26T05:25:19.543Z,65
2022-11-26T05:30:19.599Z,65
2022-11-26T05:35:16.614Z,65
2022-11-26T05:40:20.687Z,65
2022-11-26T05:45:19.604Z,65
2022-11-26T05:50:16.621Z,65
2022-11-26T05:55:19.607Z,65
2022-11-26T06:00:19.572Z,65
2022-11-26T06:05:16.573Z,65
2022-11-26T06:10:16.463Z,65
2022-11-26T06:15:20.731Z,65
2022-11-26T06:20:16.633Z,64
2022-11-26T06:25:19.660Z,64
2022-11-26T06:30:16.606Z,63
2022-11-26T06:35:19.597Z,63
2022-11-26T06:40:19.603Z,62
2022-11-26T06:45:16.632Z,62
2022-11-26T06:50:17.759Z,62
2022-11-26T06:55:19.635Z,62
2022-11-26T07:00:19.650Z,61
2022-11-26T07:05:19.641Z,61
2022-11-26T07:10:16.692Z,61
2022-11-26T07:15:19.632Z,61
2022-11-26T07:20:20.605Z,61
2022-11-26T07:25:19.669Z,61
2022-11-26T07:30:19.642Z,60
2022-11-26T07:35:16.688Z,60
2022-11-26T07:40:19.619Z,60
2022-11-26T07:45:16.695Z,60
2022-11-26T07:50:19.652Z,59
2022-11-26T07:55:17.813Z,59
2022-11-26T08:00:19.656Z,59
2022-11-26T08:05:19.663Z,59
2022-11-26T08:10:19.639Z,59
2022-11-26T08:15:19.644Z,59
2022-11-26T08:20:16.729Z,59
2022-11-26T08:25:20.780Z,59
2022-11-26T08:30:19.639Z,59
2022-11-26T08:35:19.657Z,59
2022-11-26T08:40:19.667Z,59
2022-11-26T08:45:16.769Z,59
2022-11-26T08:50:19.658Z,59
2022-11-26T08:55:16.665Z,59
2022-11-26T09:00:20.736Z,59
2022-11-26T09:05:19.685Z,59
2022-11-26T09:10:19.708Z,59
2022-11-26T09:15:19.753Z,59
2022-11-26T09:20:16.718Z,60
2022-11-26T09:25:19.724Z,59
2022-11-26T09:30:19.660Z,60
2022-11-26T09:35:20.650Z,60
2022-11-26T09:40:16.718Z,60
2022-11-26T09:45:19.695Z,60
2022-11-26T09:50:16.703Z,60
2022-11-26T09:55:19.703Z,60
2022-11-26T10:00:16.756Z,60
2022-11-26T10:05:21.431Z,61
2022-11-26T10:10:20.918Z,61
2022-11-26T10:15:19.739Z,61
2022-11-26T10:20:19.820Z,61
2022-11-26T10:25:16.776Z,61
2022-11-26T10:30:19.747Z,61
2022-11-26T10:35:16.716Z,62
2022-11-26T10:40:19.778Z,62
2022-11-26T10:45:17.732Z,62
2022-11-26T10:50:45.521Z,62
2022-11-26T10:55:16.754Z,62
2022-11-26T11:00:19.777Z,62
2022-11-26T11:05:19.713Z,62
2022-11-26T11:10:19.761Z,62
2022-11-26T11:15:20.732Z,62
2022-11-26T11:20:16.737Z,62
2022-11-26T11:25:16.607Z,62
2022-11-26T11:30:19.800Z,62
2022-11-26T11:35:16.827Z,62
2022-11-26T11:40:19.757Z,62
2022-11-26T11:45:19.760Z,62
2022-11-26T11:50:20.744Z,62
2022-11-26T11:55:16.759Z,62
2022-11-26T12:00:19.755Z,62
2022-11-26T12:05:19.775Z,62
2022-11-26T12:10:16.839Z,62
2022-11-26T12:15:16.830Z,62
2022-11-26T12:20:19.952Z,63
2022-11-26T12:25:20.897Z,63
2022-11-26T12:30:16.868Z,64
2022-11-26T12:35:19.767Z,64
2022-11-26T12:40:19.767Z,64
2022-11-26T12:45:17.764Z,64
2022-11-26T12:50:19.810Z,64
2022-11-26T12:55:19.812Z,65
2022-11-26T13:00:22.349Z,65
2022-11-26T13:05:19.791Z,64
2022-11-26T13:10:19.765Z,64
2022-11-26T13:15:16.813Z,64
2022-11-26T13:20:16.871Z,64
2022-11-26T13:25:19.820Z,63
2022-11-26T13:30:20.901Z,63
2022-11-26T13:35:19.856Z,62
2022-11-26T13:40:16.842Z,62
2022-11-26T13:45:16.842Z,62
2022-11-26T13:50:19.815Z,61
2022-11-26T13:55:19.830Z,61
2022-11-26T14:00:19.777Z,60
2022-11-26T14:05:20.782Z,59
2022-11-26T14:10:19.815Z,59
2022-11-26T14:15:16.885Z,57
2022-11-26T14:20:19.880Z,57
2022-11-26T14:25:19.854Z,57
2022-11-26T14:30:19.785Z,56
2022-11-26T14:35:19.812Z,55
2022-11-26T14:40:17.966Z,54
2022-11-26T14:45:16.855Z,53
2022-11-26T14:50:19.849Z,52
2022-11-26T14:55:19.855Z,52
2022-11-26T15:00:16.921Z,52
2022-11-26T15:05:19.836Z,51
2022-11-26T15:10:21.012Z,51
2022-11-26T15:15:19.955Z,51
2022-11-26T15:20:19.887Z,51
2022-11-26T15:25:16.824Z,50
2022-11-26T15:30:19.876Z,50
2022-11-26T15:35:19.844Z,50
2022-11-26T15:40:16.896Z,50
2022-11-26T15:45:21.058Z,49
2022-11-26T15:50:19.865Z,50
2022-11-26T15:55:17.341Z,50
2022-11-26T16:00:19.954Z,50
2022-11-26T16:05:19.869Z,49
2022-11-26T16:10:16.926Z,49
2022-11-26T16:15:19.887Z,48
2022-11-26T16:20:21.064Z,48
2022-11-26T16:25:16.939Z,48
2022-11-26T16:30:19.887Z,47
2022-11-26T16:35:44.111Z,47
2022-11-26T16:40:19.923Z,47
2022-11-26T16:45:16.763Z,46
2022-11-26T16:50:19.904Z,46
2022-11-26T16:55:21.069Z,46
2022-11-26T17:00:16.936Z,45
2022-11-26T17:05:19.959Z,46
2022-11-26T17:10:19.991Z,45
2022-11-26T17:15:16.956Z,45
2022-11-26T17:20:16.807Z,44
2022-11-26T17:25:19.903Z,44
2022-11-26T17:30:18.136Z,44
2022-11-26T17:35:19.907Z,43
2022-11-26T17:40:16.938Z,42
2022-11-26T17:45:16.925Z,42
2022-11-26T17:50:19.921Z,43
2022-11-26T17:55:16.977Z,43
2022-11-26T18:00:21.012Z,42
2022-11-26T18:05:19.941Z,41
2022-11-26T18:10:16.995Z,41
2022-11-26T18:15:19.933Z,41
2022-11-26T18:20:19.944Z,41
2022-11-26T18:25:16.971Z,41
2022-11-26T18:30:20.026Z,40
2022-11-26T18:35:17.917Z,40
2022-11-26T18:40:19.962Z,40
2022-11-26T18:45:19.968Z,40
2022-11-26T18:50:16.990Z,40
2022-11-26T18:55:17.026Z,40
2022-11-26T19:00:19.916Z,39
2022-11-26T19:05:21.049Z,39
2022-11-26T19:10:19.946Z,39
2022-11-26T19:15:17.032Z,39
2022-11-26T19:20:16.966Z,39
2022-11-26T19:25:16.968Z,39
2022-11-26T19:30:19.965Z,39
2022-11-26T19:35:19.979Z,39
2022-11-26T19:40:21.028Z,39
2022-11-26T19:45:17.057Z,38
2022-11-26T19:50:17.019Z,39
2022-11-26T19:55:20.014Z,39
2022-11-26T20:00:20.005Z,39
2022-11-26T20:05:19.961Z,39
2022-11-26T20:10:17.031Z,39
2022-11-26T20:15:21.098Z,40
2022-11-26T20:20:19.992Z,40
2022-11-26T20:25:20.028Z,40
2022-11-26T20:30:17.036Z,40
2022-11-26T20:35:17.022Z,41
2022-11-26T20:40:16.955Z,41
2022-11-26T20:45:19.999Z,42
2022-11-26T20:50:20.993Z,42
2022-11-26T20:55:16.826Z,42
2022-11-26T21:00:24.816Z,42
2022-11-26T21:05:20.017Z,42
2022-11-26T21:10:20.009Z,43
2022-11-26T21:15:17.019Z,43
2022-11-26T21:20:16.927Z,43
2022-11-26T21:25:21.142Z,43
2022-11-26T21:30:20.033Z,44
2022-11-26T21:35:17.022Z,44
2022-11-26T21:40:20.102Z,44
2022-11-26T21:45:20.010Z,45
2022-11-26T21:50:20.054Z,45
2022-11-26T21:55:17.059Z,46
2022-11-26T22:00:21.179Z,46
2022-11-26T22:05:20.048Z,46
2022-11-26T22:10:17.104Z,47
2022-11-26T22:15:20.001Z,47
2022-11-26T22:20:20.062Z,48
2022-11-26T22:25:20.022Z,49
2022-11-26T22:30:20.057Z,49
2022-11-26T22:35:21.208Z,50
2022-11-26T22:40:17.098Z,50
2022-11-26T22:45:20.040Z,50
2022-11-26T22:50:20.072Z,51
2022-11-26T22:55:17.087Z,51
2022-11-26T23:00:20.086Z,51
2022-11-26T23:05:20.058Z,51
2022-11-26T23:10:18.195Z,52
2022-11-26T23:15:20.169Z,52
2022-11-26T23:20:17.090Z,52
2022-11-26T23:25:17.155Z,52
2022-11-26T23:30:20.090Z,52
2022-11-26T23:35:20.038Z,52
2022-11-26T23:40:17.086Z,53
2022-11-26T23:45:21.196Z,53
2022-11-26T23:50:20.045Z,53
2022-11-26T23:55:17.062Z,53
